Time;durP1;ratioP1;P1;durP2;ratioP2;P2;SDS_P1;SDS_P2;PMS_P1;PMS_P2;Temp;Humidity;BMP_temperature;BMP_pressure;BME280_temperature;BME280_humidity;BME280_pressure;Samples;Min_cycle;Max_cycle;Signal;HPM_P1;HPM_P2
2023/03/20 00:01:16;;;;;;;3.70;3.30;;;;;;;;;;6071154;23;20097;-79
2023/03/20 00:03:43;;;;;;;4.28;3.88;;;;;;;;;;6072569;23;20106;-81
2023/03/20 00:06:32;;;;;;;3.72;3.42;;;;;;;;;;6048807;23;20027;-82
2023/03/20 00:09:03;;;;;;;3.83;3.50;;;;;;;;;;6049491;23;20449;-80
2023/03/20 00:11:35;;;;;;;3.72;3.40;;;;;;;;;;6026942;23;20026;-81
2023/03/20 00:14:07;;;;;;;3.22;2.92;;;;;;;;;;6048514;23;20035;-81
2023/03/20 00:16:42;;;;;;;5.25;3.55;;;;;;;;;;6049570;23;20073;-80
2023/03/20 00:19:28;;;;;;;3.47;3.17;;;;;;;;;;6050706;23;20018;-80
2023/03/20 00:21:55;;;;;;;4.38;2.95;;;;;;;;;;6052373;23;20023;-80
2023/03/20 00:24:24;;;;;;;3.17;2.58;;;;;;;;;;6050798;23;20037;-78
2023/03/20 00:26:54;;;;;;;4.07;3.15;;;;;;;;;;6049511;23;20105;-79
2023/03/20 00:29:29;;;;;;;2.60;2.40;;;;;;;;;;6051837;23;20059;-80
2023/03/20 00:31:58;;;;;;;2.40;2.20;;;;;;;;;;6051293;23;20022;-80
2023/03/20 00:34:28;;;;;;;2.75;2.50;;;;;;;;;;6050793;23;20022;-80
2023/03/20 00:36:58;;;;;;;3.60;2.30;;;;;;;;;;6050850;23;20480;-80
2023/03/20 00:39:26;;;;;;;2.25;2.08;;;;;;;;;;6027162;23;20529;-79
2023/03/20 00:41:56;;;;;;;2.67;2.40;;;;;;;;;;6050247;23;20320;-80
2023/03/20 00:44:39;;;;;;;2.80;2.60;;;;;;;;;;6051422;23;20022;-80
2023/03/20 00:47:23;;;;;;;3.25;2.47;;;;;;;;;;6075053;23;20109;-80
2023/03/20 00:49:51;;;;;;;2.60;2.40;;;;;;;;;;6052322;23;20038;-80
2023/03/20 00:52:20;;;;;;;3.70;2.30;;;;;;;;;;6050411;23;20353;-80
2023/03/20 00:54:47;;;;;;;2.30;2.10;;;;;;;;;;6049752;23;20042;-78
2023/03/20 00:57:38;;;;;;;3.20;2.75;;;;;;;;;;6049680;23;20035;-77
2023/03/20 01:00:44;;;;;;;2.10;1.98;;;;;;;;;;6049429;23;20027;-77
2023/03/20 01:03:21;;;;;;;2.05;1.95;;;;;;;;;;6074190;23;20027;-79
2023/03/20 01:05:50;;;;;;;2.10;1.90;;;;;;;;;;6074468;23;20335;-78
2023/03/20 01:08:25;;;;;;;2.30;2.10;;;;;;;;;;6050218;23;20458;-78
2023/03/20 01:10:57;;;;;;;2.30;2.10;;;;;;;;;;6051564;23;20026;-79
2023/03/20 01:13:33;;;;;;;4.18;2.20;;;;;;;;;;6029281;23;20102;-78
2023/03/20 01:16:24;;;;;;;2.45;2.05;;;;;;;;;;6051455;23;20064;-78
2023/03/20 01:18:58;;;;;;;2.55;2.35;;;;;;;;;;6075862;23;20029;-80
2023/03/20 01:21:28;;;;;;;;;;;;;;;;;;6055148;23;20026;-80
2023/03/20 01:23:58;;;;;;;3.42;2.17;;;;;;;;;;6070776;23;19921;-76
2023/03/20 01:26:42;;;;;;;3.15;2.45;;;;;;;;;;6025542;23;20027;-77
2023/03/20 01:29:26;;;;;;;2.55;2.35;;;;;;;;;;6048995;23;20026;-77
2023/03/20 01:31:59;;;;;;;4.50;2.30;;;;;;;;;;6053965;23;20061;-78
2023/03/20 01:34:29;;;;;;;3.13;2.85;;;;;;;;;;6054558;23;20023;-78
2023/03/20 01:36:57;;;;;;;3.78;3.20;;;;;;;;;;6074118;23;20022;-78
2023/03/20 01:39:30;;;;;;;3.75;3.35;;;;;;;;;;6052867;23;20037;-79
2023/03/20 01:42:01;;;;;;;3.97;3.45;;;;;;;;;;6032526;23;20022;-79
2023/03/20 01:44:40;;;;;;;4.00;3.60;;;;;;;;;;6071085;23;20026;-78
2023/03/20 01:47:22;;;;;;;4.28;3.88;;;;;;;;;;6072668;23;20030;-78
2023/03/20 01:50:21;;;;;;;3.97;3.60;;;;;;;;;;6075028;23;20082;-77
2023/03/20 01:53:02;;;;;;;4.95;3.95;;;;;;;;;;6094619;23;20046;-78
2023/03/20 01:55:37;;;;;;;6.85;5.50;;;;;;;;;;6071664;23;20010;-77
2023/03/20 01:58:53;;;;;;;6.22;4.45;;;;;;;;;;6077986;23;20042;-77
2023/03/20 02:04:38;;;;;;;5.15;4.55;;;;;;;;;;6072979;23;20027;-77
2023/03/20 02:07:11;;;;;;;5.18;4.65;;;;;;;;;;6061292;23;20070;-80
2023/03/20 02:09:44;;;;;;;5.85;4.97;;;;;;;;;;6051004;23;20029;-80
2023/03/20 02:12:16;;;;;;;6.53;5.53;;;;;;;;;;6027094;23;20077;-80
2023/03/20 02:14:46;;;;;;;6.50;5.55;;;;;;;;;;6047365;23;20034;-80
2023/03/20 02:17:20;;;;;;;6.82;5.85;;;;;;;;;;6023523;23;20037;-80
2023/03/20 02:20:04;;;;;;;7.13;6.30;;;;;;;;;;6027999;23;20034;-80
2023/03/20 02:22:46;;;;;;;7.55;5.70;;;;;;;;;;6049164;23;20042;-81
2023/03/20 02:25:28;;;;;;;6.88;6.18;;;;;;;;;;6073043;23;20057;-80
2023/03/20 02:28:26;;;;;;;6.68;5.45;;;;;;;;;;6072323;23;20029;-79
2023/03/20 02:31:27;;;;;;;6.03;5.40;;;;;;;;;;6072994;23;20028;-80
2023/03/20 02:34:04;;;;;;;7.13;5.53;;;;;;;;;;6071309;23;20027;-80
2023/03/20 02:37:07;;;;;;;7.50;6.05;;;;;;;;;;6073099;23;20028;-79
2023/03/20 02:40:03;;;;;;;6.25;5.60;;;;;;;;;;6073936;23;20414;-78
2023/03/20 02:42:54;;;;;;;8.63;6.20;;;;;;;;;;6069814;23;20077;-78
2023/03/20 02:45:46;;;;;;;4.70;4.30;;;;;;;;;;6073299;23;20091;-79
2023/03/20 02:48:20;;;;;;;4.60;4.20;;;;;;;;;;6051772;23;20028;-80
2023/03/20 02:51:04;;;;;;;4.43;3.97;;;;;;;;;;6069207;23;20029;-80
2023/03/20 02:53:53;;;;;;;4.07;3.67;;;;;;;;;;6069689;23;20574;-80
2023/03/20 02:56:29;;;;;;;3.70;3.40;;;;;;;;;;6070053;23;20031;-78
2023/03/20 02:59:16;;;;;;;;;;;;;;;;;;6071650;23;20026;-79
2023/03/20 03:01:54;;;;;;;2.90;2.65;;;;;;;;;;6069458;23;19917;-79
2023/03/20 03:04:26;;;;;;;2.35;2.15;;;;;;;;;;6048383;23;20026;-80
2023/03/20 03:07:02;;;;;;;2.40;2.20;;;;;;;;;;6051113;23;20026;-80
2023/03/20 03:09:44;;;;;;;2.22;2.03;;;;;;;;;;6027563;23;20042;-80
2023/03/20 03:12:20;;;;;;;2.33;1.80;;;;;;;;;;6047536;23;20473;-79
2023/03/20 03:15:02;;;;;;;2.35;1.73;;;;;;;;;;6048863;23;20030;-78
2023/03/20 03:17:52;;;;;;;1.45;1.35;;;;;;;;;;6050091;23;20026;-78
2023/03/20 03:20:26;;;;;;;1.55;1.45;;;;;;;;;;6049916;23;20022;-79
2023/03/20 03:23:03;;;;;;;1.10;1.00;;;;;;;;;;6047348;23;20065;-79
2023/03/20 03:25:38;;;;;;;2.25;1.40;;;;;;;;;;6048916;23;20484;-79
2023/03/20 03:28:29;;;;;;;1.63;1.40;;;;;;;;;;6047665;23;20042;-79
2023/03/20 03:31:00;;;;;;;1.50;1.40;;;;;;;;;;6049831;23;20026;-78
2023/03/20 03:33:34;;;;;;;1.60;1.15;;;;;;;;;;6047591;23;20811;-80
2023/03/20 03:36:19;;;;;;;2.25;1.80;;;;;;;;;;6026761;23;20084;-77
2023/03/20 03:39:09;;;;;;;1.50;1.40;;;;;;;;;;6071686;23;20109;-78
2023/03/20 03:41:52;;;;;;;2.35;1.40;;;;;;;;;;6049434;23;20081;-77
2023/03/20 03:44:29;;;;;;;1.83;1.65;;;;;;;;;;6072110;23;20022;-77
2023/03/20 03:47:04;;;;;;;2.00;1.40;;;;;;;;;;6070714;23;20022;-78
2023/03/20 03:49:36;;;;;;;3.92;1.40;;;;;;;;;;6071712;23;20018;-78
2023/03/20 03:52:26;;;;;;;1.58;1.45;;;;;;;;;;6050642;23;20026;-78
2023/03/20 03:55:02;;;;;;;3.55;1.55;;;;;;;;;;6053269;23;20030;-78
2023/03/20 03:57:47;;;;;;;2.88;1.42;;;;;;;;;;6051456;23;20361;-79
2023/03/20 04:00:22;;;;;;;1.58;1.33;;;;;;;;;;6052749;23;20022;-80
2023/03/20 04:02:52;;;;;;;2.72;1.40;;;;;;;;;;6051851;23;20461;-80
2023/03/20 04:05:23;;;;;;;2.92;1.30;;;;;;;;;;6027452;23;20101;-80
2023/03/20 04:07:55;;;;;;;1.15;1.05;;;;;;;;;;6052054;23;20034;-80
2023/03/20 04:10:30;;;;;;;1.73;1.42;;;;;;;;;;6053976;23;20018;-80
2023/03/20 04:13:01;;;;;;;1.70;1.40;;;;;;;;;;6055374;23;20022;-80
2023/03/20 04:15:37;;;;;;;3.33;1.15;;;;;;;;;;6079013;23;20022;-80
2023/03/20 04:18:14;;;;;;;1.60;1.50;;;;;;;;;;6061365;23;20034;-79
2023/03/20 04:20:54;;;;;;;1.27;1.17;;;;;;;;;;6072674;23;20022;-77
2023/03/20 04:23:34;;;;;;;1.60;1.10;;;;;;;;;;6032733;23;20022;-79
2023/03/20 04:26:12;;;;;;;1.50;1.40;;;;;;;;;;6047937;23;20333;-78
2023/03/20 04:28:49;;;;;;;1.42;1.33;;;;;;;;;;6049271;23;20022;-78
2023/03/20 04:31:20;;;;;;;1.50;1.40;;;;;;;;;;6052879;23;20022;-80
2023/03/20 04:33:51;;;;;;;1.50;1.35;;;;;;;;;;6050264;23;20128;-77
2023/03/20 04:36:20;;;;;;;1.80;1.33;;;;;;;;;;6070644;23;20026;-76
2023/03/20 04:38:48;;;;;;;2.58;1.50;;;;;;;;;;6070017;23;20022;-76
2023/03/20 04:41:20;;;;;;;1.92;1.30;;;;;;;;;;6047261;23;20033;-79
2023/03/20 04:43:56;;;;;;;1.73;1.30;;;;;;;;;;6049868;23;20027;-78
2023/03/20 04:46:39;;;;;;;1.33;1.10;;;;;;;;;;6050831;23;20167;-77
2023/03/20 04:49:08;;;;;;;1.50;1.40;;;;;;;;;;6052039;23;20038;-79
2023/03/20 04:51:46;;;;;;;4.47;3.08;;;;;;;;;;6053833;23;20109;-78
2023/03/20 04:54:15;;;;;;;2.92;1.42;;;;;;;;;;6073014;23;20029;-78
2023/03/20 04:56:49;;;;;;;1.30;1.20;;;;;;;;;;6027438;23;20022;-79
2023/03/20 04:59:20;;;;;;;1.17;1.03;;;;;;;;;;6049416;23;20085;-77
2023/03/20 05:01:48;;;;;;;2.60;1.20;;;;;;;;;;6048043;23;20265;-77
2023/03/20 05:04:28;;;;;;;1.20;1.10;;;;;;;;;;6050635;23;20024;-78
2023/03/20 05:07:00;;;;;;;1.20;0.80;;;;;;;;;;6049035;23;20026;-76
2023/03/20 05:09:37;;;;;;;1.35;0.90;;;;;;;;;;6048801;23;20025;-79
2023/03/20 05:12:19;;;;;;;1.00;0.90;;;;;;;;;;6046641;23;20063;-76
2023/03/20 05:14:49;;;;;;;1.52;1.10;;;;;;;;;;6051338;23;20029;-77
2023/03/20 05:17:24;;;;;;;1.20;0.90;;;;;;;;;;6027609;23;20026;-77
2023/03/20 05:19:56;;;;;;;1.00;0.90;;;;;;;;;;6027030;23;20014;-78
2023/03/20 05:22:23;;;;;;;1.23;1.13;;;;;;;;;;6048953;23;20061;-76
2023/03/20 05:24:56;;;;;;;1.13;1.02;;;;;;;;;;6048245;23;20049;-78
2023/03/20 05:27:24;;;;;;;1.65;0.80;;;;;;;;;;6048726;23;20487;-78
2023/03/20 05:29:56;;;;;;;1.38;1.15;;;;;;;;;;6049848;23;20014;-77
2023/03/20 05:32:23;;;;;;;1.20;0.93;;;;;;;;;;6047597;23;20030;-77
2023/03/20 05:34:51;;;;;;;2.05;0.90;;;;;;;;;;6025332;23;20091;-78
2023/03/20 05:37:29;;;;;;;1.27;1.15;;;;;;;;;;6073819;23;20462;-77
2023/03/20 05:40:07;;;;;;;1.88;0.95;;;;;;;;;;6025487;23;20022;-77
2023/03/20 05:42:38;;;;;;;3.53;1.25;;;;;;;;;;6049114;23;20030;-77
2023/03/20 05:45:26;;;;;;;2.65;1.00;;;;;;;;;;6047425;23;20045;-78
2023/03/20 05:48:02;;;;;;;3.55;1.20;;;;;;;;;;6071308;23;20022;-76
2023/03/20 05:50:33;;;;;;;2.20;1.17;;;;;;;;;;6048415;23;20449;-79
2023/03/20 05:53:17;;;;;;;1.33;1.10;;;;;;;;;;6049019;23;20042;-76
2023/03/20 05:55:51;;;;;;;1.55;1.13;;;;;;;;;;6050361;23;20110;-77
2023/03/20 05:58:27;;;;;;;2.25;1.20;;;;;;;;;;6050467;23;20022;-77
2023/03/20 06:01:00;;;;;;;1.30;1.20;;;;;;;;;;6047134;23;20081;-77
2023/03/20 06:03:30;;;;;;;1.33;1.20;;;;;;;;;;6049516;23;20026;-78
2023/03/20 06:06:07;;;;;;;1.65;1.55;;;;;;;;;;6049395;23;20031;-78
2023/03/20 06:08:37;;;;;;;1.98;1.20;;;;;;;;;;6023820;23;20022;-79
2023/03/20 06:11:07;;;;;;;1.40;1.30;;;;;;;;;;6071899;23;20098;-77
2023/03/20 06:13:45;;;;;;;2.20;1.60;;;;;;;;;;6070502;23;20019;-78
2023/03/20 06:16:36;;;;;;;2.13;1.48;;;;;;;;;;6051821;23;20416;-79
2023/03/20 06:19:06;;;;;;;3.95;3.00;;;;;;;;;;6050661;23;20019;-77
2023/03/20 06:21:45;;;;;;;3.28;1.48;;;;;;;;;;6048233;23;20034;-77
2023/03/20 06:24:14;;;;;;;2.38;1.20;;;;;;;;;;6051416;23;20030;-76
2023/03/20 06:26:55;;;;;;;2.40;1.58;;;;;;;;;;6046108;23;20072;-77
2023/03/20 06:29:28;;;;;;;2.85;1.90;;;;;;;;;;6048791;23;20540;-77
2023/03/20 06:31:59;;;;;;;4.40;1.58;;;;;;;;;;6051313;23;20038;-78
2023/03/20 06:34:32;;;;;;;1.80;1.40;;;;;;;;;;6050267;23;20022;-79
2023/03/20 06:37:16;;;;;;;1.98;1.27;;;;;;;;;;6053561;23;20101;-77
2023/03/20 06:40:04;;;;;;;1.55;1.30;;;;;;;;;;6032191;23;20022;-77
2023/03/20 06:42:47;;;;;;;1.55;1.30;;;;;;;;;;6063868;23;20029;-75
2023/03/20 06:45:16;;;;;;;2.90;1.70;;;;;;;;;;6053073;23;20036;-75
2023/03/20 06:47:49;;;;;;;1.65;1.50;;;;;;;;;;6075540;23;20034;-77
2023/03/20 06:50:19;;;;;;;1.77;1.50;;;;;;;;;;6072830;23;20002;-79
2023/03/20 06:52:55;;;;;;;4.22;1.40;;;;;;;;;;6049541;23;20011;-85
2023/03/20 06:55:33;;;;;;;2.78;1.42;;;;;;;;;;6077887;23;20030;-82
2023/03/20 06:58:05;;;;;;;1.50;1.40;;;;;;;;;;6051686;23;20022;-80
2023/03/20 07:00:42;;;;;;;2.58;1.90;;;;;;;;;;6074521;23;20022;-83
2023/03/20 07:03:12;;;;;;;1.70;1.60;;;;;;;;;;6045283;23;20030;-82
2023/03/20 07:05:44;;;;;;;1.92;1.30;;;;;;;;;;6069813;23;20026;-81
2023/03/20 07:08:18;;;;;;;2.42;1.20;;;;;;;;;;6069925;23;20018;-82
2023/03/20 07:10:49;;;;;;;1.77;1.45;;;;;;;;;;6068444;23;20032;-83
2023/03/20 07:13:31;;;;;;;2.67;1.77;;;;;;;;;;6069620;23;20026;-83
2023/03/20 07:16:04;;;;;;;3.10;1.55;;;;;;;;;;6071399;23;20033;-85
2023/03/20 07:18:42;;;;;;;3.08;1.27;;;;;;;;;;6073826;23;20026;-88
2023/03/20 07:21:20;;;;;;;4.30;1.30;;;;;;;;;;6068909;23;20014;-87
2023/03/20 07:23:53;;;;;;;3.15;1.45;;;;;;;;;;6071848;23;20026;-89
2023/03/20 07:26:21;;;;;;;3.72;1.67;;;;;;;;;;6073702;23;20034;-86
2023/03/20 07:28:53;;;;;;;3.00;1.40;;;;;;;;;;6071764;23;20026;-84
2023/03/20 07:31:28;;;;;;;2.50;1.20;;;;;;;;;;6069125;23;20293;-85
2023/03/20 07:34:00;;;;;;;4.53;2.40;;;;;;;;;;6064623;23;20017;-89
2023/03/20 07:36:30;;;;;;;4.68;1.60;;;;;;;;;;6044836;23;20006;-85
2023/03/20 07:38:58;;;;;;;2.97;1.42;;;;;;;;;;6071373;23;20076;-86
2023/03/20 07:41:25;;;;;;;2.35;1.40;;;;;;;;;;6046500;23;20017;-85
2023/03/20 07:43:53;;;;;;;3.65;1.33;;;;;;;;;;6046256;23;20014;-87
2023/03/20 07:46:25;;;;;;;1.38;1.10;;;;;;;;;;6046310;23;20045;-85
2023/03/20 07:49:06;;;;;;;1.85;1.38;;;;;;;;;;6041929;23;20073;-82
2023/03/20 07:51:40;;;;;;;2.42;1.25;;;;;;;;;;6034941;23;20030;-84
2023/03/20 07:54:10;;;;;;;2.97;1.10;;;;;;;;;;6074504;23;20022;-81
2023/03/20 07:56:38;;;;;;;4.57;1.38;;;;;;;;;;6048724;23;20018;-82
2023/03/20 07:59:08;;;;;;;2.50;1.50;;;;;;;;;;6048449;23;20029;-82
2023/03/20 08:01:40;;;;;;;3.13;1.15;;;;;;;;;;6048789;23;20046;-84
2023/03/20 08:04:08;;;;;;;1.98;1.15;;;;;;;;;;6062762;23;20058;-82
2023/03/20 08:06:38;;;;;;;3.53;1.25;;;;;;;;;;6048170;23;20051;-83
2023/03/20 08:09:08;;;;;;;1.27;0.90;;;;;;;;;;6049105;23;20022;-83
2023/03/20 08:11:36;;;;;;;1.42;1.00;;;;;;;;;;6050955;23;20033;-84
2023/03/20 08:14:04;;;;;;;1.50;0.95;;;;;;;;;;6074650;23;20027;-84
2023/03/20 08:16:32;;;;;;;1.20;0.88;;;;;;;;;;6048471;23;20026;-81
2023/03/20 08:19:04;;;;;;;1.42;0.93;;;;;;;;;;6047318;23;20025;-82
2023/03/20 08:21:39;;;;;;;1.80;0.98;;;;;;;;;;6050348;23;20413;-82
2023/03/20 08:24:10;;;;;;;1.10;0.85;;;;;;;;;;6047396;23;20026;-82
2023/03/20 08:26:42;;;;;;;1.13;0.95;;;;;;;;;;6049055;23;20101;-82
2023/03/20 08:29:16;;;;;;;1.17;0.80;;;;;;;;;;6047543;23;20858;-82
2023/03/20 08:31:43;;;;;;;0.95;0.90;;;;;;;;;;6046364;23;20029;-75
2023/03/20 08:34:14;;;;;;;1.67;0.88;;;;;;;;;;6042055;23;20026;-74
2023/03/20 08:36:42;;;;;;;4.82;0.98;;;;;;;;;;6066964;23;20022;-74
2023/03/20 08:39:14;;;;;;;1.95;1.30;;;;;;;;;;6022151;23;20049;-75
2023/03/20 08:41:44;;;;;;;1.63;0.80;;;;;;;;;;6045391;23;20023;-77
2023/03/20 08:44:18;;;;;;;1.00;0.90;;;;;;;;;;6046415;23;20030;-76
2023/03/20 08:46:52;;;;;;;3.80;1.00;;;;;;;;;;6044803;23;20489;-76
2023/03/20 08:49:22;;;;;;;1.70;1.08;;;;;;;;;;6064218;23;20109;-77
2023/03/20 08:51:59;;;;;;;0.70;0.70;;;;;;;;;;6046570;23;20031;-76
2023/03/20 08:54:33;;;;;;;2.13;1.10;;;;;;;;;;6051683;23;20083;-76
2023/03/20 08:57:00;;;;;;;2.00;0.90;;;;;;;;;;6049468;23;20073;-76
2023/03/20 08:59:30;;;;;;;0.80;0.80;;;;;;;;;;6024220;23;20101;-76
2023/03/20 09:02:00;;;;;;;1.02;0.98;;;;;;;;;;6070080;23;20030;-76
2023/03/20 09:04:36;;;;;;;1.23;0.90;;;;;;;;;;6049217;23;20524;-76
2023/03/20 09:07:04;;;;;;;2.20;1.20;;;;;;;;;;6048833;23;20022;-79
2023/03/20 09:09:34;;;;;;;1.70;1.60;;;;;;;;;;6027182;23;20018;-75
2023/03/20 09:12:02;;;;;;;2.25;1.25;;;;;;;;;;6029127;23;20045;-81
2023/03/20 09:14:33;;;;;;;2.67;1.35;;;;;;;;;;6052833;23;20532;-79
2023/03/20 09:17:04;;;;;;;2.13;1.00;;;;;;;;;;6045762;23;20030;-78
2023/03/20 09:19:38;;;;;;;1.10;1.00;;;;;;;;;;6075777;23;20030;-76
2023/03/20 09:22:08;;;;;;;1.20;1.10;;;;;;;;;;6075540;23;20042;-77
2023/03/20 09:24:37;;;;;;;1.15;0.95;;;;;;;;;;6076698;23;20017;-77
2023/03/20 09:27:05;;;;;;;2.60;1.17;;;;;;;;;;6051810;23;20081;-77
2023/03/20 09:29:36;;;;;;;1.83;1.35;;;;;;;;;;6077446;23;20053;-77
2023/03/20 09:32:07;;;;;;;1.55;1.23;;;;;;;;;;6099661;23;20022;-77
2023/03/20 09:34:39;;;;;;;2.15;1.13;;;;;;;;;;6123354;23;20006;-77
2023/03/20 09:37:07;;;;;;;1.73;1.08;;;;;;;;;;6076833;23;20010;-77
2023/03/20 09:39:34;;;;;;;0.90;0.90;;;;;;;;;;6052342;23;20034;-77
2023/03/20 09:42:13;;;;;;;2.15;1.17;;;;;;;;;;6052491;23;20082;-77
2023/03/20 09:44:52;;;;;;;1.10;1.00;;;;;;;;;;6075404;23;20014;-77
2023/03/20 09:47:33;;;;;;;1.08;0.90;;;;;;;;;;6099305;23;20050;-77
2023/03/20 09:50:20;;;;;;;7.05;2.25;;;;;;;;;;6099406;23;20037;-77
2023/03/20 09:53:11;;;;;;;1.52;1.30;;;;;;;;;;6098385;23;20020;-77
2023/03/20 09:55:40;;;;;;;1.08;0.98;;;;;;;;;;6099295;23;20019;-77
2023/03/20 09:58:26;;;;;;;1.27;1.00;;;;;;;;;;6073836;23;20085;-77
2023/03/20 10:00:58;;;;;;;2.05;1.05;;;;;;;;;;6069876;23;20118;-77
2023/03/20 10:03:41;;;;;;;1.35;1.10;;;;;;;;;;6048584;23;20120;-78
2023/03/20 10:06:15;;;;;;;7.38;3.92;;;;;;;;;;6050665;23;20401;-78
2023/03/20 10:08:44;;;;;;;12.63;6.18;;;;;;;;;;6048154;23;20025;-78
2023/03/20 10:11:40;;;;;;;7.28;3.35;;;;;;;;;;6047823;23;20491;-78
2023/03/20 10:14:21;;;;;;;4.85;2.75;;;;;;;;;;6072556;23;20030;-78
2023/03/20 10:17:16;;;;;;;16.00;7.75;;;;;;;;;;6072238;23;20060;-77
2023/03/20 10:20:30;;;;;;;13.95;6.55;;;;;;;;;;6072198;23;20022;-77
2023/03/20 10:23:20;;;;;;;9.10;5.35;;;;;;;;;;6052028;23;20028;-77
2023/03/20 10:25:55;;;;;;;2.22;1.60;;;;;;;;;;6075003;23;20101;-77
2023/03/20 10:28:51;;;;;;;4.20;2.25;;;;;;;;;;6051537;23;20022;-77
2023/03/20 10:31:40;;;;;;;17.48;6.68;;;;;;;;;;6051363;23;20406;-77
2023/03/20 10:34:25;;;;;;;6.55;2.03;;;;;;;;;;6073265;23;20054;-77
2023/03/20 10:37:02;;;;;;;5.65;1.98;;;;;;;;;;6050187;23;20106;-77
2023/03/20 10:39:49;;;;;;;2.53;1.80;;;;;;;;;;6072436;23;20030;-78
2023/03/20 10:42:23;;;;;;;2.47;1.90;;;;;;;;;;6071706;23;20109;-77
2023/03/20 10:44:57;;;;;;;2.40;1.67;;;;;;;;;;6049354;23;20085;-77
2023/03/20 10:47:29;;;;;;;2.80;1.70;;;;;;;;;;6049785;23;20029;-77
2023/03/20 10:50:07;;;;;;;1.70;1.58;;;;;;;;;;6047986;23;20045;-77
2023/03/20 10:52:37;;;;;;;4.30;3.22;;;;;;;;;;6048283;23;20026;-78
2023/03/20 10:55:09;;;;;;;3.92;3.00;;;;;;;;;;6047431;23;20032;-77
2023/03/20 10:57:40;;;;;;;3.78;2.20;;;;;;;;;;6071904;23;20029;-77
2023/03/20 11:00:16;;;;;;;3.58;2.40;;;;;;;;;;6048437;23;20057;-78
2023/03/20 11:02:45;;;;;;;2.60;2.17;;;;;;;;;;6048406;23;20110;-77
2023/03/20 11:05:49;;;;;;;3.28;2.38;;;;;;;;;;6048806;23;20074;-78
2023/03/20 11:08:40;;;;;;;4.00;3.20;;;;;;;;;;6060403;23;20026;-77
2023/03/20 11:11:10;;;;;;;4.18;2.97;;;;;;;;;;6049810;23;20018;-76
2023/03/20 11:13:40;;;;;;;4.90;3.15;;;;;;;;;;6071896;23;20081;-77
2023/03/20 11:16:18;;;;;;;5.15;3.78;;;;;;;;;;6048248;23;20030;-77
2023/03/20 11:18:48;;;;;;;3.38;3.05;;;;;;;;;;6049581;23;20082;-77
2023/03/20 11:21:27;;;;;;;3.70;2.97;;;;;;;;;;6048399;23;20085;-77
2023/03/20 11:23:54;;;;;;;3.72;3.00;;;;;;;;;;6047033;23;20029;-78
2023/03/20 11:26:39;;;;;;;3.85;3.40;;;;;;;;;;6047185;23;20038;-77
2023/03/20 11:29:42;;;;;;;3.70;3.25;;;;;;;;;;6051292;23;20057;-81
2023/03/20 11:32:30;;;;;;;4.75;3.63;;;;;;;;;;6017813;23;20097;-78
2023/03/20 11:35:18;;;;;;;4.97;3.40;;;;;;;;;;6071903;23;20026;-79
2023/03/20 11:37:54;;;;;;;5.28;3.20;;;;;;;;;;6074100;23;20528;-79
2023/03/20 11:40:24;;;;;;;4.90;3.60;;;;;;;;;;6052724;23;20074;-83
2023/03/20 11:43:15;;;;;;;4.90;4.13;;;;;;;;;;6053310;23;20109;-84
2023/03/20 11:45:47;;;;;;;4.47;3.67;;;;;;;;;;6053426;23;20030;-84
2023/03/20 11:48:22;;;;;;;5.93;3.70;;;;;;;;;;6052218;23;20050;-84
2023/03/20 11:51:19;;;;;;;4.60;3.92;;;;;;;;;;6053295;23;20019;-84
2023/03/20 11:53:46;;;;;;;6.97;4.05;;;;;;;;;;6053496;23;20026;-84
2023/03/20 11:56:24;;;;;;;4.30;3.30;;;;;;;;;;6076233;23;20037;-86
2023/03/20 11:59:10;;;;;;;6.07;3.70;;;;;;;;;;6052246;23;20027;-84
2023/03/20 12:01:47;;;;;;;10.27;6.82;;;;;;;;;;6074376;23;20360;-84
2023/03/20 12:04:32;;;;;;;7.07;3.97;;;;;;;;;;6052428;23;20442;-83
2023/03/20 12:07:11;;;;;;;5.35;3.92;;;;;;;;;;6052811;23;20033;-83
2023/03/20 12:09:43;;;;;;;10.93;6.72;;;;;;;;;;6074365;23;20103;-82
2023/03/20 12:12:40;;;;;;;16.02;10.05;;;;;;;;;;6070799;23;20132;-83
2023/03/20 12:15:25;;;;;;;7.47;4.97;;;;;;;;;;6065515;23;20552;-84
2023/03/20 12:17:55;;;;;;;5.50;4.00;;;;;;;;;;6055582;23;20018;-84
2023/03/20 12:20:31;;;;;;;5.22;4.30;;;;;;;;;;6077899;23;20105;-84
2023/03/20 12:23:08;;;;;;;4.82;3.90;;;;;;;;;;6033730;23;20053;-82
2023/03/20 12:25:53;;;;;;;5.70;4.10;;;;;;;;;;6078468;23;20087;-84
2023/03/20 12:28:33;;;;;;;5.60;4.07;;;;;;;;;;6104567;23;20026;-84
2023/03/20 12:31:13;;;;;;;4.32;3.75;;;;;;;;;;6078685;23;20273;-85
2023/03/20 12:34:00;;;;;;;6.70;3.92;;;;;;;;;;6056366;23;20082;-85
2023/03/20 12:36:41;;;;;;;5.40;3.22;;;;;;;;;;6056261;23;20027;-86
2023/03/20 12:39:26;;;;;;;4.22;3.30;;;;;;;;;;6055820;23;20077;-84
2023/03/20 12:42:21;;;;;;;4.85;3.60;;;;;;;;;;6058802;23;20691;-85
2023/03/20 12:45:11;;;;;;;3.63;2.75;;;;;;;;;;6080140;23;20128;-85
2023/03/20 12:48:02;;;;;;;3.70;3.17;;;;;;;;;;6057915;23;20051;-86
2023/03/20 12:50:41;;;;;;;4.47;3.00;;;;;;;;;;6085095;23;20006;-86
2023/03/20 12:53:20;;;;;;;4.35;2.90;;;;;;;;;;6064275;23;20022;-85
2023/03/20 12:56:14;;;;;;;4.55;3.20;;;;;;;;;;6090854;23;20010;-84
2023/03/20 12:59:10;;;;;;;3.92;3.30;;;;;;;;;;6088509;23;20028;-84
2023/03/20 13:01:44;;;;;;;4.68;3.13;;;;;;;;;;6033667;23;20023;-83
2023/03/20 13:04:41;;;;;;;3.28;2.83;;;;;;;;;;6054859;23;20022;-81
2023/03/20 13:07:25;;;;;;;3.33;2.83;;;;;;;;;;6055532;23;20069;-83
2023/03/20 13:10:20;;;;;;;2.75;2.42;;;;;;;;;;6054164;23;20027;-84
2023/03/20 13:13:13;;;;;;;3.97;2.78;;;;;;;;;;6076747;23;20029;-82
2023/03/20 13:16:27;;;;;;;5.43;3.75;;;;;;;;;;6077307;23;20023;-82
2023/03/20 13:19:05;;;;;;;5.10;3.22;;;;;;;;;;6054909;23;20135;-83
2023/03/20 13:22:35;;;;;;;3.92;3.10;;;;;;;;;;6060607;23;20077;-83
2023/03/20 13:25:35;;;;;;;3.65;2.50;;;;;;;;;;5930052;23;20036;-74
2023/03/20 13:28:05;;;;;;;3.67;2.55;;;;;;;;;;6071215;23;20114;-76
2023/03/20 13:30:45;;;;;;;4.82;3.20;;;;;;;;;;6070453;23;20428;-76
2023/03/20 13:33:44;;;;;;;6.72;4.30;;;;;;;;;;6026487;23;20034;-76
2023/03/20 13:36:48;;;;;;;5.50;3.63;;;;;;;;;;6074021;23;20081;-76
2023/03/20 13:39:44;;;;;;;6.35;3.22;;;;;;;;;;6071303;23;20030;-77
2023/03/20 13:42:16;;;;;;;5.65;3.38;;;;;;;;;;6068441;23;20101;-76
2023/03/20 13:44:44;;;;;;;4.20;2.88;;;;;;;;;;6048048;23;20049;-75
2023/03/20 13:47:19;;;;;;;3.42;3.03;;;;;;;;;;6046766;23;20038;-74
2023/03/20 13:49:57;;;;;;;3.95;2.55;;;;;;;;;;6048746;23;20022;-80
2023/03/20 13:52:30;;;;;;;4.32;2.80;;;;;;;;;;6071830;23;20070;-75
2023/03/20 13:55:23;;;;;;;4.05;2.78;;;;;;;;;;6047268;23;20032;-76
2023/03/20 13:58:12;;;;;;;3.45;2.60;;;;;;;;;;6070621;23;20019;-75
2023/03/20 14:00:49;;;;;;;2.70;2.35;;;;;;;;;;6069486;23;20109;-75
2023/03/20 14:03:38;;;;;;;4.05;2.58;;;;;;;;;;6070451;23;20461;-76
2023/03/20 14:06:38;;;;;;;4.18;2.40;;;;;;;;;;6046912;23;20053;-74
2023/03/20 14:09:23;;;;;;;3.20;2.10;;;;;;;;;;6094997;23;20054;-74
2023/03/20 14:11:53;;;;;;;2.25;2.03;;;;;;;;;;6068761;23;20028;-74
2023/03/20 14:14:33;;;;;;;3.80;2.90;;;;;;;;;;6045834;23;20026;-74
2023/03/20 14:17:26;;;;;;;2.78;2.30;;;;;;;;;;6048357;23;20097;-76
2023/03/20 14:19:57;;;;;;;3.47;2.30;;;;;;;;;;6047473;23;20026;-74
2023/03/20 14:22:35;;;;;;;2.75;2.05;;;;;;;;;;6046458;23;20093;-74
2023/03/20 14:25:08;;;;;;;3.22;2.55;;;;;;;;;;6046331;23;20335;-74
2023/03/20 14:27:52;;;;;;;;;;;;;;;;;;6046994;23;20023;-74
2023/03/20 14:30:29;;;;;;;5.20;2.00;;;;;;;;;;6069709;23;19917;-74
2023/03/20 14:33:05;;;;;;;2.42;1.70;;;;;;;;;;6069629;23;20598;-74
2023/03/20 14:35:38;;;;;;;2.40;1.92;;;;;;;;;;6069195;23;20044;-74
2023/03/20 14:38:15;;;;;;;2.67;1.95;;;;;;;;;;6045954;23;20027;-74
2023/03/20 14:41:12;;;;;;;3.53;2.42;;;;;;;;;;6046919;23;20025;-74
2023/03/20 14:44:02;;;;;;;2.90;2.10;;;;;;;;;;6069913;23;20027;-73
2023/03/20 14:46:40;;;;;;;2.47;1.70;;;;;;;;;;6046590;23;20030;-74
2023/03/20 14:49:36;;;;;;;3.42;1.92;;;;;;;;;;6068979;23;20045;-73
2023/03/20 14:52:42;;;;;;;3.42;2.15;;;;;;;;;;6047383;23;20548;-74
2023/03/20 14:55:16;;;;;;;3.55;2.13;;;;;;;;;;6068896;23;20035;-73
2023/03/20 14:57:44;;;;;;;4.85;2.60;;;;;;;;;;6069645;23;20342;-73
2023/03/20 15:00:25;;;;;;;3.13;2.15;;;;;;;;;;6049527;23;20027;-73
2023/03/20 15:03:09;;;;;;;4.80;2.40;;;;;;;;;;6046533;23;20030;-74
2023/03/20 15:05:38;;;;;;;3.05;2.15;;;;;;;;;;6047139;23;20026;-73
2023/03/20 15:08:09;;;;;;;5.57;2.03;;;;;;;;;;6045113;23;20330;-74
2023/03/20 15:10:46;;;;;;;4.57;2.00;;;;;;;;;;6068092;23;20026;-74
2023/03/20 15:13:14;;;;;;;2.72;2.22;;;;;;;;;;6046981;23;20026;-74
2023/03/20 15:15:53;;;;;;;2.22;1.70;;;;;;;;;;6045125;23;20609;-74
2023/03/20 15:18:25;;;;;;;3.25;2.13;;;;;;;;;;6045533;23;20044;-74
2023/03/20 15:20:55;;;;;;;3.13;2.10;;;;;;;;;;6046340;23;20115;-74
2023/03/20 15:23:24;;;;;;;3.30;2.08;;;;;;;;;;6048344;23;20027;-80
2023/03/20 15:25:52;;;;;;;3.72;2.40;;;;;;;;;;6050756;23;20101;-79
2023/03/20 15:28:25;;;;;;;3.00;2.45;;;;;;;;;;6047109;23;20105;-79
2023/03/20 15:30:57;;;;;;;3.63;2.30;;;;;;;;;;6050072;23;20024;-80
2023/03/20 15:33:35;;;;;;;2.35;1.67;;;;;;;;;;6046423;23;20033;-75
2023/03/20 15:36:09;;;;;;;4.47;2.20;;;;;;;;;;6074660;23;20038;-80
2023/03/20 15:38:37;;;;;;;2.35;1.73;;;;;;;;;;6055404;23;20547;-81
2023/03/20 15:41:09;;;;;;;2.92;1.80;;;;;;;;;;6050237;23;20022;-80
2023/03/20 15:43:47;;;;;;;3.78;1.90;;;;;;;;;;6051848;23;20086;-83
2023/03/20 15:46:30;;;;;;;2.20;2.00;;;;;;;;;;6051972;23;20050;-81
2023/03/20 15:49:01;;;;;;;4.80;2.33;;;;;;;;;;6074795;23;20081;-80